Time;durP1;ratioP1;P1;durP2;ratioP2;P2;SDS_P1;SDS_P2;PMS_P1;PMS_P2;Temp;Humidity;BMP_temperature;BMP_pressure;BME280_temperature;BME280_humidity;BME280_pressure;Samples;Min_cycle;Max_cycle;Signal;HPM_P1;HPM_P2
2022/08/05 00:01:38;;;;;;;;;;;22.70;70.10;;;;;;6215006;23;697;-69
2022/08/05 00:04:04;;;;;;;;;;;22.70;70.10;;;;;;6214685;23;808;-69
2022/08/05 00:06:29;;;;;;;;;;;22.70;70.10;;;;;;6213767;23;1258;-69
2022/08/05 00:08:55;;;;;;;;;;;22.60;70.10;;;;;;6213239;23;789;-69
2022/08/05 00:11:20;;;;;;;;;;;22.60;70.10;;;;;;6214682;23;1923;-69
2022/08/05 00:13:46;;;;;;;;;;;22.70;70.10;;;;;;6214651;23;846;-69
2022/08/05 00:16:12;;;;;;;;;;;22.70;70.10;;;;;;6213234;23;1206;-69
2022/08/05 00:18:38;;;;;;;;;;;22.70;70.10;;;;;;6212961;23;1022;-69
2022/08/05 00:21:04;;;;;;;;;;;22.60;70.00;;;;;;6213884;23;853;-69
2022/08/05 00:23:30;;;;;;;;;;;22.70;70.10;;;;;;6213390;23;855;-69
2022/08/05 00:25:55;;;;;;;;;;;22.70;70.10;;;;;;6212241;23;1317;-67
2022/08/05 00:28:21;;;;;;;;;;;22.70;70.10;;;;;;6212966;23;892;-69
2022/08/05 00:30:46;;;;;;;;;;;22.70;70.20;;;;;;6214153;23;1897;-68
2022/08/05 00:33:12;;;;;;;;;;;22.60;70.10;;;;;;6214333;23;803;-67
2022/08/05 00:35:37;;;;;;;;;;;22.70;70.10;;;;;;6212349;23;1253;-69
2022/08/05 00:38:03;;;;;;;;;;;22.60;70.90;;;;;;6212792;23;872;-69
2022/08/05 00:40:28;;;;;;;;;;;22.70;70.20;;;;;;6214833;23;1020;-69
2022/08/05 00:42:54;;;;;;;;;;;22.60;70.10;;;;;;6213567;23;982;-69
2022/08/05 00:45:20;;;;;;;;;;;22.60;70.10;;;;;;6215905;23;1226;-70
2022/08/05 00:47:45;;;;;;;;;;;22.60;70.10;;;;;;6216030;23;804;-69
2022/08/05 00:50:10;;;;;;;;;;;22.70;70.20;;;;;;6216185;23;1165;-69
2022/08/05 00:52:36;;;;;;;;;;;22.60;70.10;;;;;;6216146;23;867;-69
2022/08/05 00:55:02;;;;;;;;;;;22.60;70.10;;;;;;6216549;23;1006;-68
2022/08/05 00:57:27;;;;;;;;;;;22.70;70.20;;;;;;6215880;23;823;-69
2022/08/05 00:59:53;;;;;;;;;;;22.60;70.10;;;;;;6215833;23;908;-68
2022/08/05 01:02:18;;;;;;;;;;;22.60;70.10;;;;;;6189739;23;1344;-69
2022/08/05 01:04:44;;;;;;;;;;;22.60;70.10;;;;;;6216234;23;843;-69
2022/08/05 01:07:09;;;;;;;;;;;22.70;71.00;;;;;;6213861;23;1288;-67
2022/08/05 01:09:34;;;;;;;;;;;22.60;70.10;;;;;;6214099;23;815;-69
2022/08/05 01:12:05;;;;;;;;;;;22.70;70.20;;;;;;6215878;23;1939;-69
2022/08/05 01:14:32;;;;;;;;;;;22.70;70.20;;;;;;6189430;23;1025;-68
2022/08/05 01:17:21;;;;;;;;;;;22.60;70.20;;;;;;6213647;23;1305;-68
2022/08/05 01:19:46;;;;;;;;;;;22.60;70.20;;;;;;6216529;23;847;-68
2022/08/05 01:22:18;;;;;;;;;;;22.60;70.10;;;;;;6214170;23;1292;-69
2022/08/05 01:24:59;;;;;;;;;;;22.60;70.10;;;;;;6214339;23;1210;-69
2022/08/05 01:27:28;;;;;;;;;;;22.60;70.20;;;;;;6214954;23;1208;-69
2022/08/05 01:29:55;;;;;;;;;;;22.60;70.20;;;;;;6214563;23;907;-69
2022/08/05 01:32:21;;;;;;;;;;;22.70;70.20;;;;;;6215705;23;1900;-69
2022/08/05 01:34:52;;;;;;;;;;;22.60;70.20;;;;;;6214709;23;879;-69
2022/08/05 01:37:18;;;;;;;;;;;22.70;70.30;;;;;;6213896;23;1177;-70
2022/08/05 01:39:44;;;;;;;;;;;22.60;70.20;;;;;;6214125;23;823;-69
2022/08/05 01:42:11;;;;;;;;;;;22.60;70.20;;;;;;6216252;23;934;-69
2022/08/05 01:44:36;;;;;;;;;;;22.60;70.20;;;;;;6214505;23;882;-69
2022/08/05 01:47:02;;;;;;;;;;;22.60;70.20;;;;;;6214989;23;1260;-69
2022/08/05 01:49:27;;;;;;;;;;;22.60;70.20;;;;;;6213997;23;824;-69
2022/08/05 01:51:54;;;;;;;;;;;22.60;70.20;;;;;;6215676;23;1893;-69
2022/08/05 01:54:20;;;;;;;;;;;22.60;70.20;;;;;;6214217;23;828;-68
2022/08/05 01:56:45;;;;;;;;;;;22.70;70.30;;;;;;6213363;23;1357;-70
2022/08/05 01:59:12;;;;;;;;;;;22.60;70.20;;;;;;6188915;23;1243;-70
2022/08/05 02:01:37;;;;;;;;;;;22.60;70.20;;;;;;6214220;23;803;-68
2022/08/05 02:04:03;;;;;;;;;;;22.60;70.20;;;;;;6214205;23;867;-70
2022/08/05 02:06:28;;;;;;;;;;;22.70;70.30;;;;;;6212948;23;1268;-70
2022/08/05 02:08:54;;;;;;;;;;;22.60;70.20;;;;;;6213962;23;1057;-70
2022/08/05 02:11:19;;;;;;;;;;;22.60;70.20;;;;;;6214250;23;1936;-69
2022/08/05 02:13:52;;;;;;;;;;;22.60;70.20;;;;;;6215602;23;1021;-69
2022/08/05 02:16:28;;;;;;;;;;;22.60;70.20;;;;;;6213003;23;1277;-68
2022/08/05 02:18:54;;;;;;;;;;;22.60;70.20;;;;;;6215527;23;861;-69
2022/08/05 02:21:38;;;;;;;;;;;22.60;70.20;;;;;;6213906;23;907;-67
2022/08/05 02:24:05;;;;;;;;;;;22.60;70.20;;;;;;6215511;23;882;-69
2022/08/05 02:26:38;;;;;;;;;;;22.60;70.20;;;;;;6215134;23;1270;-69
2022/08/05 02:29:04;;;;;;;;;;;22.60;70.30;;;;;;6213840;23;827;-69
2022/08/05 02:31:30;;;;;;;;;;;22.60;70.20;;;;;;6214493;23;1951;-68
2022/08/05 02:33:56;;;;;;;;;;;22.60;70.20;;;;;;6213635;23;1013;-69
2022/08/05 02:36:22;;;;;;;;;;;22.60;70.20;;;;;;6214477;23;1294;-69
2022/08/05 02:38:48;;;;;;;;;;;22.60;70.30;;;;;;6215000;23;852;-68
2022/08/05 02:41:13;;;;;;;;;;;22.60;70.30;;;;;;6214089;23;819;-68
2022/08/05 02:43:39;;;;;;;;;;;22.60;70.30;;;;;;6213609;23;844;-68
2022/08/05 02:46:04;;;;;;;;;;;22.60;70.20;;;;;;6212902;23;1214;-68
2022/08/05 02:48:30;;;;;;;;;;;22.60;70.30;;;;;;6213514;23;831;-68
2022/08/05 02:50:59;;;;;;;;;;;22.60;70.30;;;;;;6213504;23;1926;-68
2022/08/05 02:53:24;;;;;;;;;;;22.60;70.30;;;;;;6215462;23;839;-69
2022/08/05 02:55:51;;;;;;;;;;;22.60;70.30;;;;;;6213715;23;1297;-67
2022/08/05 02:58:17;;;;;;;;;;;22.60;70.30;;;;;;6213870;23;847;-68
2022/08/05 03:00:43;;;;;;;;;;;22.60;70.30;;;;;;6215393;23;820;-69
2022/08/05 03:03:08;;;;;;;;;;;22.60;70.30;;;;;;6214722;23;815;-68
2022/08/05 03:05:34;;;;;;;;;;;22.60;70.30;;;;;;6212883;23;1301;-69
2022/08/05 03:07:59;;;;;;;;;;;22.60;70.30;;;;;;6214384;23;1002;-69
2022/08/05 03:10:24;;;;;;;;;;;22.60;70.30;;;;;;6213946;23;1932;-67
2022/08/05 03:12:50;;;;;;;;;;;22.60;70.30;;;;;;6215098;23;994;-68
2022/08/05 03:15:15;;;;;;;;;;;22.60;71.00;;;;;;6215029;23;1192;-68
2022/08/05 03:17:41;;;;;;;;;;;22.60;70.30;;;;;;6212464;23;990;-68
2022/08/05 03:20:07;;;;;;;;;;;22.60;70.30;;;;;;6214482;23;757;-69
2022/08/05 03:22:32;;;;;;;;;;;22.60;70.30;;;;;;6215225;23;891;-69
2022/08/05 03:24:58;;;;;;;;;;;22.60;70.30;;;;;;6214817;23;839;-69
2022/08/05 03:27:23;;;;;;;;;;;22.60;70.30;;;;;;6213765;23;1288;-69
2022/08/05 03:29:49;;;;;;;;;;;22.70;70.30;;;;;;6213480;23;772;-68
2022/08/05 03:32:14;;;;;;;;;;;22.60;70.30;;;;;;6214985;23;1900;-69
2022/08/05 03:34:40;;;;;;;;;;;22.60;70.30;;;;;;6213736;23;796;-69
2022/08/05 03:37:06;;;;;;;;;;;22.60;70.30;;;;;;6213949;23;1199;-69
2022/08/05 03:39:31;;;;;;;;;;;22.60;70.30;;;;;;6214270;23;900;-70
2022/08/05 03:41:57;;;;;;;;;;;22.60;70.30;;;;;;6214490;23;880;-70
2022/08/05 03:44:22;;;;;;;;;;;22.60;70.30;;;;;;6213728;23;1015;-69
2022/08/05 03:46:48;;;;;;;;;;;22.60;70.30;;;;;;6214094;23;1289;-69
2022/08/05 03:49:13;;;;;;;;;;;22.60;70.30;;;;;;6200585;23;950;-68
2022/08/05 03:51:57;;;;;;;;;;;22.60;70.30;;;;;;6210301;23;1897;-67
2022/08/05 03:54:23;;;;;;;;;;;22.60;70.30;;;;;;6186996;23;1686;-67
2022/08/05 03:56:48;;;;;;;;;;;22.60;70.30;;;;;;6210292;23;1283;-68
2022/08/05 03:59:16;;;;;;;;;;;22.60;70.30;;;;;;6212306;23;785;-68
2022/08/05 04:01:43;;;;;;;;;;;22.60;70.30;;;;;;6211442;23;796;-69
2022/08/05 04:04:09;;;;;;;;;;;22.60;70.30;;;;;;6212091;23;1042;-68
2022/08/05 04:06:34;;;;;;;;;;;22.60;70.30;;;;;;6211562;23;1163;-69
2022/08/05 04:09:00;;;;;;;;;;;22.60;70.30;;;;;;6212206;23;935;-69
2022/08/05 04:11:26;;;;;;;;;;;22.60;70.30;;;;;;6211924;23;1928;-69
2022/08/05 04:13:51;;;;;;;;;;;22.60;70.30;;;;;;6187256;23;828;-70
2022/08/05 04:16:16;;;;;;;;;;;22.60;70.30;;;;;;6187917;23;1309;-69
2022/08/05 04:18:43;;;;;;;;;;;22.60;70.30;;;;;;6213881;23;950;-69
2022/08/05 04:21:09;;;;;;;;;;;22.60;70.30;;;;;;6213721;23;1062;-68
2022/08/05 04:23:35;;;;;;;;;;;22.60;70.30;;;;;;6214465;23;1234;-69
2022/08/05 04:26:01;;;;;;;;;;;22.60;70.30;;;;;;6213583;23;1283;-69
2022/08/05 04:28:26;;;;;;;;;;;22.60;70.30;;;;;;6215565;23;875;-68
2022/08/05 04:30:51;;;;;;;;;;;22.60;70.30;;;;;;6214884;23;1892;-68
2022/08/05 04:33:17;;;;;;;;;;;22.60;70.30;;;;;;6215502;23;970;-68
2022/08/05 04:35:42;;;;;;;;;;;22.60;70.30;;;;;;6214227;23;1267;-68
2022/08/05 04:38:08;;;;;;;;;;;22.60;70.30;;;;;;6213727;23;845;-69
2022/08/05 04:40:34;;;;;;;;;;;22.60;70.30;;;;;;6213831;23;1010;-68
2022/08/05 04:42:59;;;;;;;;;;;22.60;70.30;;;;;;6216034;23;784;-71
2022/08/05 04:45:25;;;;;;;;;;;22.60;70.30;;;;;;6214383;23;1258;-71
2022/08/05 04:47:50;;;;;;;;;;;22.60;70.40;;;;;;6214160;23;855;-68
2022/08/05 04:50:16;;;;;;;;;;;22.60;70.30;;;;;;6213406;23;804;-69
2022/08/05 04:52:42;;;;;;;;;;;22.60;70.30;;;;;;6214228;23;1932;-68
2022/08/05 04:55:07;;;;;;;;;;;22.60;70.30;;;;;;6213193;23;1191;-68
2022/08/05 04:57:33;;;;;;;;;;;22.60;70.30;;;;;;6214946;23;962;-68
2022/08/05 04:59:58;;;;;;;;;;;22.60;70.30;;;;;;6215013;23;815;-68
2022/08/05 05:02:24;;;;;;;;;;;22.60;70.30;;;;;;6215188;23;903;-68
2022/08/05 05:04:49;;;;;;;;;;;22.60;70.40;;;;;;6215066;23;1029;-68
2022/08/05 05:07:15;;;;;;;;;;;22.60;70.30;;;;;;6212763;23;1281;-68
2022/08/05 05:09:40;;;;;;;;;;;22.60;70.40;;;;;;6213117;23;800;-68
2022/08/05 05:12:06;;;;;;;;;;;22.60;70.40;;;;;;6215195;23;1943;-69
2022/08/05 05:14:31;;;;;;;;;;;22.60;70.30;;;;;;6213520;23;847;-67
2022/08/05 05:16:57;;;;;;;;;;;22.60;70.30;;;;;;6214299;23;1335;-69
2022/08/05 05:19:22;;;;;;;;;;;22.60;70.30;;;;;;6212963;23;792;-67
2022/08/05 05:21:48;;;;;;;;;;;22.60;70.30;;;;;;6213553;23;915;-66
2022/08/05 05:24:13;;;;;;;;;;;22.60;70.30;;;;;;6213538;23;1468;-69
2022/08/05 05:26:39;;;;;;;;;;;22.60;70.30;;;;;;6214114;23;1277;-69
2022/08/05 05:29:04;;;;;;;;;;;22.60;70.30;;;;;;6213030;23;1964;-68
2022/08/05 05:31:30;;;;;;;;;;;22.60;70.30;;;;;;6187876;23;1932;-67
2022/08/05 05:33:55;;;;;;;;;;;22.60;70.30;;;;;;6214679;23;788;-67
2022/08/05 05:36:21;;;;;;;;;;;22.60;70.30;;;;;;6214427;23;1200;-67
2022/08/05 05:38:46;;;;;;;;;;;22.60;70.30;;;;;;6214559;23;919;-69
2022/08/05 05:41:11;;;;;;;;;;;22.60;70.30;;;;;;6213147;23;1119;-69
2022/08/05 05:43:37;;;;;;;;;;;22.60;70.30;;;;;;6214807;23;832;-68
2022/08/05 05:46:02;;;;;;;;;;;22.60;70.30;;;;;;6211315;23;1212;-69
2022/08/05 05:48:28;;;;;;;;;;;22.60;70.30;;;;;;6214413;23;856;-69
2022/08/05 05:50:53;;;;;;;;;;;22.60;70.30;;;;;;6213227;23;1928;-69
2022/08/05 05:53:18;;;;;;;;;;;22.60;70.30;;;;;;6214735;23;1038;-68
2022/08/05 05:55:44;;;;;;;;;;;22.60;70.30;;;;;;6214639;23;1187;-68
2022/08/05 05:58:10;;;;;;;;;;;22.60;70.30;;;;;;6209055;23;875;-67
2022/08/05 06:00:35;;;;;;;;;;;22.60;70.30;;;;;;6212857;23;919;-68
2022/08/05 06:03:02;;;;;;;;;;;22.60;70.30;;;;;;6214890;23;822;-68
2022/08/05 06:05:27;;;;;;;;;;;22.60;70.20;;;;;;6214128;23;1291;-68
2022/08/05 06:07:52;;;;;;;;;;;22.60;70.30;;;;;;6213715;23;1045;-68
2022/08/05 06:10:18;;;;;;;;;;;22.60;70.20;;;;;;6214308;23;1042;-68
2022/08/05 06:12:43;;;;;;;;;;;22.60;70.20;;;;;;6208462;23;1932;-68
2022/08/05 06:15:09;;;;;;;;;;;22.60;70.20;;;;;;6213934;23;1317;-68
2022/08/05 06:17:35;;;;;;;;;;;22.60;70.20;;;;;;6213603;23;914;-67
2022/08/05 06:20:00;;;;;;;;;;;22.60;70.30;;;;;;6212958;23;835;-68
2022/08/05 06:22:26;;;;;;;;;;;22.60;70.30;;;;;;6214845;23;828;-68
2022/08/05 06:24:52;;;;;;;;;;;22.60;70.30;;;;;;6212995;23;1015;-68
2022/08/05 06:27:17;;;;;;;;;;;22.60;70.20;;;;;;6211164;23;1302;-67
2022/08/05 06:29:43;;;;;;;;;;;22.60;70.20;;;;;;6212765;23;1252;-67
2022/08/05 06:32:09;;;;;;;;;;;22.60;70.20;;;;;;6214129;23;1897;-68
2022/08/05 06:34:34;;;;;;;;;;;22.60;70.20;;;;;;6212568;23;839;-68
2022/08/05 06:37:00;;;;;;;;;;;22.60;70.20;;;;;;6213280;23;1266;-67
2022/08/05 06:39:25;;;;;;;;;;;22.60;70.20;;;;;;6214270;23;714;-68
2022/08/05 06:41:51;;;;;;;;;;;22.60;70.20;;;;;;6212519;23;773;-68
2022/08/05 06:44:16;;;;;;;;;;;22.60;70.20;;;;;;6186948;23;1330;-67
2022/08/05 06:46:42;;;;;;;;;;;22.60;70.20;;;;;;6212442;23;1273;-66
2022/08/05 06:49:07;;;;;;;;;;;22.60;70.20;;;;;;6212779;23;816;-67
2022/08/05 06:51:33;;;;;;;;;;;22.60;70.20;;;;;;6214338;23;1920;-67
2022/08/05 06:53:58;;;;;;;;;;;22.60;70.20;;;;;;6212208;23;1132;-67
2022/08/05 06:56:24;;;;;;;;;;;22.60;70.20;;;;;;6214205;23;1206;-68
2022/08/05 06:58:49;;;;;;;;;;;22.60;70.50;;;;;;6213086;23;943;-68
2022/08/05 07:01:15;;;;;;;;;;;22.60;70.20;;;;;;6213137;23;998;-68
2022/08/05 07:03:40;;;;;;;;;;;22.60;70.20;;;;;;6213300;23;773;-68
2022/08/05 07:06:06;;;;;;;;;;;22.60;70.20;;;;;;6212542;23;1190;-69
2022/08/05 07:08:31;;;;;;;;;;;22.60;70.20;;;;;;6213695;23;970;-68
2022/08/05 07:10:56;;;;;;;;;;;22.60;70.20;;;;;;6214432;23;1927;-68
2022/08/05 07:18:50;;;;;;;;;;;22.60;70.20;;;;;;6213180;23;579;-68
2022/08/05 07:21:16;;;;;;;;;;;22.60;70.20;;;;;;6213917;23;1010;-68
2022/08/05 07:23:41;;;;;;;;;;;22.60;70.20;;;;;;6213866;23;839;-68
2022/08/05 07:26:07;;;;;;;;;;;22.60;70.20;;;;;;6211693;23;1554;-68
2022/08/05 07:28:32;;;;;;;;;;;22.60;70.20;;;;;;6213789;23;808;-68
2022/08/05 07:30:58;;;;;;;;;;;22.60;70.20;;;;;;6214004;23;1944;-68
2022/08/05 07:33:23;;;;;;;;;;;22.60;70.20;;;;;;6214226;23;884;-68
2022/08/05 07:35:48;;;;;;;;;;;22.60;70.20;;;;;;6214010;23;1152;-68
2022/08/05 07:38:14;;;;;;;;;;;22.60;70.20;;;;;;6214022;23;963;-68
2022/08/05 07:40:40;;;;;;;;;;;22.60;70.20;;;;;;6211971;23;796;-68
2022/08/05 07:43:05;;;;;;;;;;;22.60;70.20;;;;;;6187112;23;1487;-68
2022/08/05 07:45:31;;;;;;;;;;;22.60;70.20;;;;;;6211240;23;1247;-68
2022/08/05 07:47:56;;;;;;;;;;;22.60;70.20;;;;;;6212034;23;1049;-68
2022/08/05 07:50:22;;;;;;;;;;;22.60;70.20;;;;;;6211740;23;959;-68
2022/08/05 07:52:47;;;;;;;;;;;22.60;70.20;;;;;;6213595;23;1881;-68
2022/08/05 07:55:13;;;;;;;;;;;22.60;70.20;;;;;;6212044;23;1229;-68
2022/08/05 07:57:38;;;;;;;;;;;22.60;70.20;;;;;;6211893;23;836;-68
2022/08/05 08:00:04;;;;;;;;;;;22.60;70.20;;;;;;6213627;23;828;-68
2022/08/05 08:02:29;;;;;;;;;;;22.60;70.20;;;;;;6212800;23;839;-68
2022/08/05 08:04:56;;;;;;;;;;;22.60;70.20;;;;;;6214250;23;788;-68
2022/08/05 08:07:21;;;;;;;;;;;22.60;70.20;;;;;;6186311;23;1282;-68
2022/08/05 08:09:46;;;;;;;;;;;22.60;70.20;;;;;;6211897;23;1022;-68
2022/08/05 08:12:15;;;;;;;;;;;22.60;70.20;;;;;;6212446;23;1901;-68
2022/08/05 08:14:41;;;;;;;;;;;22.60;70.20;;;;;;6213707;23;827;-68
2022/08/05 08:17:09;;;;;;;;;;;22.60;70.20;;;;;;6211327;23;1289;-68
2022/08/05 08:19:35;;;;;;;;;;;22.60;70.20;;;;;;6213781;23;795;-68
2022/08/05 08:22:01;;;;;;;;;;;22.60;70.20;;;;;;6211448;23;1349;-68
2022/08/05 08:24:26;;;;;;;;;;;22.60;70.20;;;;;;6214208;23;904;-68
2022/08/05 08:26:51;;;;;;;;;;;22.60;70.20;;;;;;6213268;23;1267;-68
2022/08/05 08:29:17;;;;;;;;;;;22.60;70.20;;;;;;6212647;23;1015;-68
2022/08/05 08:31:42;;;;;;;;;;;22.60;70.20;;;;;;6214154;23;1924;-68
2022/08/05 08:34:08;;;;;;;;;;;22.60;70.20;;;;;;6213576;23;946;-68
2022/08/05 08:36:33;;;;;;;;;;;22.60;70.20;;;;;;6212191;23;1378;-68
2022/08/05 08:38:59;;;;;;;;;;;22.60;70.20;;;;;;6213340;23;899;-68
2022/08/05 08:41:25;;;;;;;;;;;22.60;70.20;;;;;;6213157;23;776;-68
2022/08/05 08:43:50;;;;;;;;;;;22.60;70.20;;;;;;6212261;23;1022;-68
2022/08/05 08:46:16;;;;;;;;;;;22.60;70.20;;;;;;6210529;23;1226;-68
2022/08/05 08:48:41;;;;;;;;;;;22.60;70.20;;;;;;6212930;23;809;-68
2022/08/05 08:51:07;;;;;;;;;;;22.60;70.20;;;;;;6212880;23;1940;-68
2022/08/05 08:53:34;;;;;;;;;;;22.60;71.00;;;;;;6211510;23;943;-68
2022/08/05 08:56:00;;;;;;;;;;;22.60;70.20;;;;;;6212297;23;1207;-68
2022/08/05 08:58:26;;;;;;;;;;;22.60;70.20;;;;;;6212939;23;1002;-69
2022/08/05 09:00:51;;;;;;;;;;;22.60;70.20;;;;;;6213210;23;955;-69
2022/08/05 09:03:16;;;;;;;;;;;22.60;70.20;;;;;;6214457;23;899;-68
2022/08/05 09:05:42;;;;;;;;;;;22.60;70.20;;;;;;6214137;23;1226;-69
2022/08/05 09:08:07;;;;;;;;;;;22.60;70.20;;;;;;6215859;23;841;-68
2022/08/05 09:10:33;;;;;;;;;;;22.60;70.20;;;;;;6216341;23;1934;-69
2022/08/05 09:12:58;;;;;;;;;;;22.70;70.90;;;;;;6215926;23;820;-69
2022/08/05 09:15:24;;;;;;;;;;;22.70;70.50;;;;;;6214002;23;1302;-68
2022/08/05 09:17:49;;;;;;;;;;;22.70;70.50;;;;;;6189240;23;1079;-68
2022/08/05 09:20:15;;;;;;;;;;;22.70;70.60;;;;;;6215888;23;1010;-68
2022/08/05 09:23:04;;;;;;;;;;;22.70;70.70;;;;;;6214385;23;1510;-68
2022/08/05 09:25:29;;;;;;;;;;;22.70;70.70;;;;;;6199635;23;1235;-68
2022/08/05 09:27:54;;;;;;;;;;;22.70;70.70;;;;;;6189039;23;1271;-68
2022/08/05 09:30:20;;;;;;;;;;;22.70;70.70;;;;;;6216431;23;883;-69
2022/08/05 09:32:45;;;;;;;;;;;22.70;70.70;;;;;;6213751;23;1942;-68
2022/08/05 09:35:12;;;;;;;;;;;22.70;70.70;;;;;;6214166;23;1215;-68
2022/08/05 09:37:39;;;;;;;;;;;22.70;70.70;;;;;;6213825;23;837;-68
2022/08/05 09:40:05;;;;;;;;;;;22.70;70.70;;;;;;6213148;23;855;-68
2022/08/05 09:42:37;;;;;;;;;;;22.70;70.70;;;;;;6215664;23;823;-68
2022/08/05 09:45:07;;;;;;;;;;;22.70;70.70;;;;;;6216012;23;831;-68
2022/08/05 09:47:32;;;;;;;;;;;22.70;70.70;;;;;;6214461;23;788;-68
2022/08/05 09:49:58;;;;;;;;;;;22.70;70.70;;;;;;6215775;23;1006;-68
2022/08/05 09:52:27;;;;;;;;;;;22.70;70.70;;;;;;6215862;23;1881;-68
2022/08/05 09:54:59;;;;;;;;;;;22.70;70.70;;;;;;6213712;23;855;-68
2022/08/05 09:57:28;;;;;;;;;;;22.60;70.60;;;;;;6213346;23;1192;-68
2022/08/05 09:59:56;;;;;;;;;;;22.70;70.70;;;;;;6212877;23;1278;-68
2022/08/05 10:02:31;;;;;;;;;;;22.70;70.70;;;;;;6215583;23;993;-69
2022/08/05 10:05:02;;;;;;;;;;;22.70;70.70;;;;;;6214101;23;804;-68
2022/08/05 10:07:41;;;;;;;;;;;22.70;70.70;;;;;;6213079;23;1155;-68
2022/08/05 10:10:06;;;;;;;;;;;22.70;70.70;;;;;;6214006;23;784;-68
2022/08/05 10:12:38;;;;;;;;;;;22.70;70.70;;;;;;6213570;23;1892;-68
2022/08/05 10:15:16;;;;;;;;;;;22.70;70.70;;;;;;6214123;23;788;-68
2022/08/05 10:17:42;;;;;;;;;;;22.60;70.60;;;;;;6214784;23;1033;-68
2022/08/05 10:20:07;;;;;;;;;;;22.70;70.70;;;;;;6213761;23;816;-68
2022/08/05 10:22:33;;;;;;;;;;;22.70;70.70;;;;;;6215618;23;871;-68
2022/08/05 10:24:58;;;;;;;;;;;22.60;70.70;;;;;;6204043;23;919;-68
2022/08/05 10:27:24;;;;;;;;;;;22.70;70.70;;;;;;6212783;23;1278;-68
2022/08/05 10:29:49;;;;;;;;;;;22.70;70.80;;;;;;6214721;23;910;-68
2022/08/05 10:32:15;;;;;;;;;;;22.70;70.70;;;;;;6212680;23;1895;-68
2022/08/05 10:34:40;;;;;;;;;;;22.70;71.50;;;;;;6213074;23;819;-68
2022/08/05 10:37:06;;;;;;;;;;;22.60;70.70;;;;;;6210009;23;1313;-68
2022/08/05 10:39:32;;;;;;;;;;;22.70;70.80;;;;;;6185570;23;1232;-68
2022/08/05 10:42:00;;;;;;;;;;;22.70;70.70;;;;;;6212909;23;831;-68
2022/08/05 10:44:25;;;;;;;;;;;22.70;70.70;;;;;;6211226;23;800;-68
2022/08/05 10:46:52;;;;;;;;;;;22.70;70.80;;;;;;6211476;23;1223;-68
2022/08/05 10:49:18;;;;;;;;;;;22.70;70.80;;;;;;6211923;23;808;-67
2022/08/05 10:51:45;;;;;;;;;;;22.70;70.70;;;;;;6212650;23;1888;-68
2022/08/05 10:54:10;;;;;;;;;;;22.70;70.80;;;;;;6210328;23;880;-67
2022/08/05 10:56:42;;;;;;;;;;;22.70;70.80;;;;;;6211577;23;1229;-69
2022/08/05 10:59:08;;;;;;;;;;;22.60;70.70;;;;;;6211132;23;1480;-68
2022/08/05 11:01:34;;;;;;;;;;;22.70;70.70;;;;;;6211239;23;939;-69
2022/08/05 11:04:04;;;;;;;;;;;22.70;70.70;;;;;;6212114;23;839;-68
2022/08/05 11:06:29;;;;;;;;;;;22.70;70.70;;;;;;6185271;23;1301;-68
2022/08/05 11:09:10;;;;;;;;;;;22.70;70.70;;;;;;6214448;23;907;-68
2022/08/05 11:11:35;;;;;;;;;;;22.70;70.80;;;;;;6213474;23;1923;-68
2022/08/05 11:14:02;;;;;;;;;;;22.70;70.80;;;;;;6214016;23;815;-68
2022/08/05 11:16:27;;;;;;;;;;;22.70;70.70;;;;;;6187625;23;1223;-68
2022/08/05 11:19:12;;;;;;;;;;;22.70;70.80;;;;;;6212431;23;792;-68
2022/08/05 11:21:37;;;;;;;;;;;22.70;70.80;;;;;;6213033;23;1025;-68
2022/08/05 11:24:07;;;;;;;;;;;22.70;70.80;;;;;;6212049;23;802;-68
2022/08/05 11:26:32;;;;;;;;;;;22.70;70.80;;;;;;6211147;23;1242;-67
2022/08/05 11:28:58;;;;;;;;;;;22.70;70.80;;;;;;6213881;23;813;-68
2022/08/05 11:31:28;;;;;;;;;;;22.70;70.80;;;;;;6211713;23;1946;-68
2022/08/05 11:33:55;;;;;;;;;;;22.70;70.80;;;;;;6213246;23;842;-68
2022/08/05 11:36:40;;;;;;;;;;;22.70;70.80;;;;;;6210899;23;1212;-68
2022/08/05 11:39:10;;;;;;;;;;;22.70;70.80;;;;;;6212113;23;769;-68
2022/08/05 11:41:36;;;;;;;;;;;22.70;70.80;;;;;;6213114;23;855;-68
2022/08/05 11:44:02;;;;;;;;;;;22.70;70.80;;;;;;6213525;23;875;-68
2022/08/05 11:46:28;;;;;;;;;;;22.70;70.80;;;;;;6211848;23;1293;-68
2022/08/05 11:48:54;;;;;;;;;;;22.70;70.80;;;;;;6213722;23;939;-68
2022/08/05 11:51:19;;;;;;;;;;;22.70;70.80;;;;;;6213450;23;1889;-68
2022/08/05 11:53:45;;;;;;;;;;;22.70;70.80;;;;;;6213109;23;990;-68
2022/08/05 11:56:11;;;;;;;;;;;22.70;70.80;;;;;;6214097;23;1289;-68
2022/08/05 11:58:40;;;;;;;;;;;22.70;70.80;;;;;;6213488;23;776;-68
2022/08/05 12:01:09;;;;;;;;;;;22.70;70.80;;;;;;6213047;23;852;-68
2022/08/05 12:03:50;;;;;;;;;;;22.70;70.80;;;;;;6212935;23;859;-68
2022/08/05 12:06:16;;;;;;;;;;;22.70;70.80;;;;;;6212598;23;1202;-68
2022/08/05 12:08:45;;;;;;;;;;;22.70;70.80;;;;;;6214131;23;1081;-66
2022/08/05 12:11:12;;;;;;;;;;;22.70;70.80;;;;;;6213067;23;1938;-68
2022/08/05 12:13:38;;;;;;;;;;;22.70;71.60;;;;;;6209494;23;1029;-67
2022/08/05 12:16:04;;;;;;;;;;;22.70;70.90;;;;;;6211927;23;1293;-66
2022/08/05 12:18:33;;;;;;;;;;;22.70;70.90;;;;;;6214376;23;803;-67
2022/08/05 12:21:09;;;;;;;;;;;22.70;71.00;;;;;;6211740;23;850;-67
2022/08/05 12:23:34;;;;;;;;;;;22.70;70.90;;;;;;6214054;23;864;-68
2022/08/05 12:25:59;;;;;;;;;;;22.70;70.90;;;;;;6211854;23;1297;-67
2022/08/05 12:28:37;;;;;;;;;;;22.70;70.80;;;;;;6207047;23;954;-67
2022/08/05 12:31:03;;;;;;;;;;;22.70;70.80;;;;;;6210521;23;1892;-67
2022/08/05 12:33:29;;;;;;;;;;;22.70;70.80;;;;;;6211784;23;899;-67
2022/08/05 12:35:54;;;;;;;;;;;22.70;70.80;;;;;;6185350;23;1306;-66
2022/08/05 12:38:20;;;;;;;;;;;22.70;70.80;;;;;;6212282;23;695;-66
2022/08/05 12:40:46;;;;;;;;;;;22.70;70.80;;;;;;6187990;23;1264;-67
2022/08/05 12:43:11;;;;;;;;;;;22.70;70.80;;;;;;6214628;23;868;-67
2022/08/05 12:45:37;;;;;;;;;;;22.70;70.80;;;;;;6210963;23;1292;-67
2022/08/05 12:48:14;;;;;;;;;;;22.70;70.80;;;;;;6188970;23;1243;-66
2022/08/05 12:50:40;;;;;;;;;;;22.70;70.80;;;;;;6214141;23;1885;-68
2022/08/05 12:53:05;;;;;;;;;;;22.70;70.80;;;;;;6212545;23;1152;-67
2022/08/05 12:55:31;;;;;;;;;;;22.70;70.80;;;;;;6212202;23;1326;-68
2022/08/05 12:57:56;;;;;;;;;;;22.70;70.90;;;;;;6213097;23;1159;-67
2022/08/05 13:00:23;;;;;;;;;;;22.70;70.80;;;;;;6214234;23;803;-66
2022/08/05 13:02:49;;;;;;;;;;;22.70;70.80;;;;;;6213064;23;932;-67
2022/08/05 13:05:15;;;;;;;;;;;22.70;70.80;;;;;;6213605;23;1180;-67
2022/08/05 13:07:41;;;;;;;;;;;22.70;70.80;;;;;;6212498;23;820;-67
2022/08/05 13:10:09;;;;;;;;;;;22.70;70.80;;;;;;6212782;23;967;-67
2022/08/05 13:12:38;;;;;;;;;;;22.70;70.80;;;;;;6213600;23;1896;-67
2022/08/05 13:15:04;;;;;;;;;;;22.70;70.80;;;;;;6213243;23;867;-67
2022/08/05 13:17:30;;;;;;;;;;;22.70;70.90;;;;;;6213583;23;1261;-67
2022/08/05 13:20:25;;;;;;;;;;;22.70;71.00;;;;;;6212374;23;938;-67
2022/08/05 13:22:51;;;;;;;;;;;22.70;71.00;;;;;;6180713;23;1112;-67
2022/08/05 13:25:16;;;;;;;;;;;22.70;71.00;;;;;;6212798;23;1198;-67
2022/08/05 13:27:45;;;;;;;;;;;22.70;70.90;;;;;;6211669;23;1415;-67
2022/08/05 13:30:16;;;;;;;;;;;22.70;71.00;;;;;;6212151;23;1099;-67
2022/08/05 13:32:42;;;;;;;;;;;22.70;70.90;;;;;;6212527;23;1948;-67
2022/08/05 13:35:08;;;;;;;;;;;22.70;70.90;;;;;;6212955;23;1300;-67
2022/08/05 13:37:33;;;;;;;;;;;22.70;70.90;;;;;;6212600;23;847;-67
2022/08/05 13:39:59;;;;;;;;;;;22.70;70.90;;;;;;6214564;23;930;-67
2022/08/05 13:42:24;;;;;;;;;;;22.70;70.90;;;;;;6214246;23;875;-67
2022/08/05 13:44:53;;;;;;;;;;;22.70;70.90;;;;;;6211225;23;1143;-67
2022/08/05 13:47:19;;;;;;;;;;;22.70;70.80;;;;;;6213518;23;1271;-66
2022/08/05 13:49:44;;;;;;;;;;;22.70;70.80;;;;;;6214388;23;840;-67
2022/08/05 13:52:11;;;;;;;;;;;22.70;70.80;;;;;;6213713;23;1917;-67
2022/08/05 13:54:37;;;;;;;;;;;22.70;70.80;;;;;;6216192;23;828;-67
2022/08/05 13:57:02;;;;;;;;;;;22.70;70.80;;;;;;6213386;23;1278;-65
2022/08/05 13:59:28;;;;;;;;;;;22.70;70.80;;;;;;6215448;23;968;-66
2022/08/05 14:01:54;;;;;;;;;;;22.70;70.80;;;;;;6215454;23;892;-67
2022/08/05 14:07:03;;;;;;;;;;;22.70;70.80;;;;;;6212846;23;1310;-67
2022/08/05 14:09:29;;;;;;;;;;;22.70;70.70;;;;;;6213039;23;915;-66
2022/08/05 14:11:54;;;;;;;;;;;22.70;70.80;;;;;;6213643;23;1881;-66
2022/08/05 14:14:19;;;;;;;;;;;22.70;70.70;;;;;;6212126;23;1034;-67
2022/08/05 14:16:45;;;;;;;;;;;22.70;70.70;;;;;;6214419;23;1274;-66
2022/08/05 14:19:10;;;;;;;;;;;22.70;70.70;;;;;;6211487;23;990;-66
2022/08/05 14:21:36;;;;;;;;;;;22.70;70.70;;;;;;6208030;23;795;-67
2022/08/05 14:24:01;;;;;;;;;;;22.70;70.70;;;;;;6213842;23;768;-67
2022/08/05 14:26:27;;;;;;;;;;;22.70;70.70;;;;;;6213319;23;1290;-66
2022/08/05 14:28:52;;;;;;;;;;;22.70;70.70;;;;;;6213420;23;875;-66
2022/08/05 14:31:19;;;;;;;;;;;22.70;70.70;;;;;;6211821;23;1901;-67
2022/08/05 14:33:44;;;;;;;;;;;22.70;70.70;;;;;;6211519;23;1115;-67
2022/08/05 14:36:10;;;;;;;;;;;22.70;70.70;;;;;;6212688;23;1248;-68
2022/08/05 14:38:35;;;;;;;;;;;22.70;70.70;;;;;;6211620;23;777;-68
2022/08/05 14:41:04;;;;;;;;;;;22.70;70.70;;;;;;6211906;23;912;-68